Speegleville, Texas
Current Conditions -  °F | °C
As of 7:51 PM on Friday 24 Oct 2014 (Local Time) from KACT Reporting Station
Clear Clear  
Wind Chill: 72°   Ceiling: Unl
Heat Index: 72°   Visibility: 10mi
Dew Point: 60°   Wind: 8mph
Humidity: 66%   Direction: 130°SE
Pressure: 30.09"   Gusts: NA
Location:  31.5356°N, 97.1921°W
Report Text: KACT 250051Z 13007KT 10SM CLR 22/16 A3009 RMK AO2 SLP184 T02220156
Loading
Personal Weather Stations






























Interactive Weather Map
Tropical Storm Tracking
New forecast layout! Learn more

10-Day Weather Forecast

Advertisements
Track Severe Weather on mobile